createdAt,value
2023-03-12T00:04:36.098Z,58.90
2023-03-12T00:09:39.311Z,58.91
2023-03-12T00:14:40.961Z,58.86
2023-03-12T00:19:42.624Z,58.72
2023-03-12T00:24:44.266Z,58.94
2023-03-12T00:29:46.007Z,58.91
2023-03-12T00:35:06.703Z,59.06
2023-03-12T00:40:10.439Z,59.06
2023-03-12T00:45:12.134Z,59.10
2023-03-12T00:50:13.775Z,58.86
2023-03-12T00:55:15.632Z,58.85
2023-03-12T01:00:17.699Z,58.67
2023-03-12T01:05:19.416Z,58.94
2023-03-12T01:10:21.838Z,58.90
2023-03-12T01:15:23.671Z,58.95
2023-03-12T01:20:25.547Z,58.94
2023-03-12T01:25:27.345Z,58.96
2023-03-12T01:30:29.647Z,59.04
2023-03-12T01:35:35.424Z,59.13
2023-03-12T01:40:38.112Z,59.15
2023-03-12T01:46:01.406Z,59.53
2023-03-12T01:51:03.733Z,59.01
2023-03-12T01:56:06.393Z,58.74
2023-03-12T02:01:08.861Z,59.03
2023-03-12T02:06:14.639Z,58.99
2023-03-12T02:11:16.267Z,59.07
2023-03-12T02:16:17.984Z,58.96
2023-03-12T02:21:30.293Z,59.00
2023-03-12T02:26:32.592Z,58.97
2023-03-12T02:31:40.732Z,59.27
2023-03-12T02:36:42.385Z,59.26
2023-03-12T02:41:55.236Z,59.44
2023-03-12T02:47:00.090Z,59.36
2023-03-12T02:52:02.607Z,59.45
2023-03-12T02:57:04.411Z,59.06
2023-03-12T03:02:07.022Z,59.27
2023-03-12T03:07:08.685Z,59.21
2023-03-12T03:12:10.292Z,59.33
2023-03-12T03:17:11.982Z,59.42
2023-03-12T03:22:13.706Z,59.28
2023-03-12T03:27:15.826Z,59.60
2023-03-12T03:32:17.455Z,59.16
2023-03-12T03:37:19.219Z,59.42
2023-03-12T03:42:20.954Z,59.45
2023-03-12T03:47:22.638Z,59.43
2023-03-12T03:52:24.243Z,59.37
2023-03-12T03:57:26.541Z,59.11
2023-03-12T04:02:28.712Z,59.34
2023-03-12T04:07:30.923Z,59.31
2023-03-12T04:12:32.571Z,59.14
2023-03-12T04:17:34.232Z,59.31
2023-03-12T04:22:35.879Z,59.33
2023-03-12T04:27:37.635Z,59.57
2023-03-12T04:32:39.366Z,59.53
2023-03-12T04:37:40.991Z,59.46
2023-03-12T04:42:42.656Z,59.34
2023-03-12T04:47:44.591Z,59.29
2023-03-12T04:52:46.194Z,59.33
2023-03-12T04:57:47.893Z,59.18
2023-03-12T05:02:49.546Z,59.11
2023-03-12T05:07:52.088Z,59.10
2023-03-12T05:12:53.756Z,59.47
2023-03-12T05:17:55.374Z,59.21
2023-03-12T05:22:57.013Z,59.42
2023-03-12T05:27:58.663Z,59.37
2023-03-12T05:33:00.336Z,59.42
2023-03-12T05:38:02.526Z,59.56
2023-03-12T05:43:04.239Z,59.45
2023-03-12T05:48:06.080Z,59.38
2023-03-12T05:53:07.893Z,59.43
2023-03-12T05:58:10.206Z,59.34
2023-03-12T06:03:12.434Z,59.52
2023-03-12T06:08:14.337Z,59.78
2023-03-12T06:13:15.953Z,59.42
2023-03-12T06:18:17.592Z,59.78
2023-03-12T06:23:21.463Z,59.80
2023-03-12T06:28:23.197Z,59.82
2023-03-12T06:33:24.938Z,59.67
2023-03-12T06:38:27.620Z,59.82
2023-03-12T06:43:30.715Z,60.10
2023-03-12T06:48:36.725Z,60.18
2023-03-12T06:53:41.793Z,60.59
2023-03-12T06:58:44.076Z,60.39
2023-03-12T07:03:46.059Z,60.70
2023-03-12T07:08:48.788Z,60.68
2023-03-12T07:13:51.634Z,60.58
2023-03-12T07:18:53.569Z,60.47
2023-03-12T07:23:55.224Z,60.07
2023-03-12T07:28:56.860Z,60.74
2023-03-12T07:33:58.625Z,61.05
2023-03-12T07:39:00.353Z,61.30
2023-03-12T07:44:02.013Z,61.22
2023-03-12T07:49:04.538Z,61.27
2023-03-12T07:54:06.202Z,61.41
2023-03-12T07:59:08.085Z,61.08
2023-03-12T08:04:09.872Z,60.88
2023-03-12T08:09:11.762Z,61.08
2023-03-12T08:14:13.488Z,60.97
2023-03-12T08:19:15.415Z,60.82
2023-03-12T08:24:17.052Z,60.88
2023-03-12T08:29:18.883Z,60.65
2023-03-12T08:34:20.877Z,60.48
2023-03-12T08:39:22.481Z,60.77
2023-03-12T08:44:24.886Z,60.23
2023-03-12T08:49:26.770Z,60.24
2023-03-12T08:54:28.457Z,60.21
2023-03-12T08:59:30.288Z,59.84
2023-03-12T09:04:32.585Z,59.38
2023-03-12T09:09:34.330Z,59.23
2023-03-12T09:15:02.623Z,59.58
2023-03-12T09:19:57.663Z,59.98
2023-03-12T09:24:59.344Z,59.73
2023-03-12T09:30:01.463Z,59.65
2023-03-12T09:35:03.999Z,59.66
2023-03-12T09:40:07.942Z,59.50
2023-03-12T09:45:17.124Z,59.72
2023-03-12T09:50:33.566Z,60.09
2023-03-12T09:55:42.297Z,59.75
2023-03-12T10:00:45.872Z,59.88
2023-03-12T10:06:03.877Z,60.36
2023-03-12T10:11:08.228Z,60.07
2023-03-12T10:16:44.709Z,59.61
2023-03-12T10:22:15.860Z,59.70
2023-03-12T10:27:18.899Z,60.01
2023-03-12T10:32:47.784Z,59.31
2023-03-12T10:38:15.475Z,59.58
2023-03-12T10:43:17.103Z,58.58
2023-03-12T10:48:21.877Z,58.53
2023-03-12T10:53:23.890Z,58.64
2023-03-12T10:58:26.335Z,58.23
2023-03-12T11:03:29.297Z,57.83
2023-03-12T11:08:33.731Z,58.08
2023-03-12T11:13:37.143Z,57.95
2023-03-12T11:18:39.034Z,57.79
2023-03-12T11:24:07.327Z,57.05
2023-03-12T11:29:31.500Z,56.87
2023-03-12T11:34:36.281Z,56.96
2023-03-12T11:40:16.973Z,57.27
2023-03-12T11:45:31.575Z,57.33
2023-03-12T11:50:57.807Z,56.56
2023-03-12T11:56:08.378Z,56.37
2023-03-12T12:01:18.508Z,56.21
2023-03-12T12:06:49.246Z,56.09
2023-03-12T12:11:51.241Z,56.11
2023-03-12T12:17:17.702Z,55.72
2023-03-12T12:22:31.036Z,55.39
2023-03-12T12:27:54.673Z,56.14
2023-03-12T12:33:14.725Z,56.95
2023-03-12T12:38:47.017Z,57.02
2023-03-12T12:43:58.089Z,57.26
2023-03-12T12:49:01.743Z,57.86
2023-03-12T12:54:26.860Z,57.83
2023-03-12T12:59:54.795Z,57.56
2023-03-12T13:04:58.598Z,58.06
2023-03-12T13:10:04.578Z,58.25
2023-03-12T13:15:27.944Z,57.96
2023-03-12T13:20:52.059Z,57.49
2023-03-12T13:26:01.003Z,57.21
2023-03-12T13:31:24.444Z,56.71
2023-03-12T13:36:28.702Z,56.99
2023-03-12T13:42:23.027Z,56.61
2023-03-12T13:47:30.935Z,57.45
2023-03-12T13:52:55.544Z,57.92
2023-03-12T13:58:05.199Z,57.64
2023-03-12T14:03:12.371Z,57.92
2023-03-12T14:08:43.541Z,58.36
2023-03-12T14:14:15.387Z,57.56
2023-03-12T14:19:21.506Z,57.21
2023-03-12T14:24:40.354Z,56.01
2023-03-12T14:29:49.571Z,56.30
2023-03-12T14:35:03.609Z,56.16
2023-03-12T14:40:29.192Z,56.36
2023-03-12T14:45:30.796Z,56.17
2023-03-12T14:50:41.019Z,55.89
2023-03-12T14:55:42.684Z,56.44
2023-03-12T15:00:46.054Z,57.20
2023-03-12T15:05:49.271Z,57.14
2023-03-12T15:10:54.415Z,56.95
2023-03-12T15:15:56.536Z,56.94
2023-03-12T15:21:00.839Z,57.49
2023-03-12T15:26:32.204Z,57.70
2023-03-12T15:31:48.127Z,57.77
2023-03-12T15:36:51.635Z,57.72
2023-03-12T15:41:54.782Z,57.14
2023-03-12T15:47:24.392Z,56.41
2023-03-12T15:52:32.880Z,55.74
2023-03-12T15:57:35.537Z,55.67
2023-03-12T16:02:39.738Z,55.41
2023-03-12T16:07:41.420Z,55.05
2023-03-12T16:12:44.357Z,54.75
2023-03-12T16:17:45.967Z,54.39
2023-03-12T16:22:47.583Z,54.27
2023-03-12T16:27:56.636Z,53.74
2023-03-12T16:33:00.507Z,53.86
2023-03-12T16:38:03.387Z,54.08
2023-03-12T16:43:07.509Z,53.87
2023-03-12T16:48:14.715Z,53.59
2023-03-12T16:53:16.996Z,53.72
2023-03-12T16:58:20.616Z,53.52
2023-03-12T17:03:30.241Z,53.58
2023-03-12T17:08:31.916Z,53.70
2023-03-12T17:13:36.937Z,53.39
2023-03-12T17:18:39.819Z,53.42
2023-03-12T17:23:42.331Z,53.08
2023-03-12T17:28:44.032Z,52.92
2023-03-12T17:33:45.689Z,52.96
2023-03-12T17:38:50.342Z,52.98
2023-03-12T17:43:52.465Z,52.95
2023-03-12T17:48:54.770Z,52.69
2023-03-12T17:53:56.523Z,52.81
2023-03-12T17:58:58.154Z,52.83
2023-03-12T18:04:00.204Z,52.82
2023-03-12T18:09:01.843Z,52.75
2023-03-12T18:14:03.483Z,53.06
2023-03-12T18:19:05.410Z,53.23
2023-03-12T18:24:14.005Z,53.19
2023-03-12T18:29:16.238Z,53.20
2023-03-12T18:34:18.083Z,53.04
2023-03-12T18:39:19.974Z,52.74
2023-03-12T18:44:21.835Z,52.96
2023-03-12T18:49:23.686Z,52.64
2023-03-12T18:54:26.067Z,52.43
2023-03-12T18:59:29.538Z,52.32
2023-03-12T19:04:32.435Z,52.25
2023-03-12T19:09:34.755Z,52.40
2023-03-12T19:14:36.377Z,52.19
2023-03-12T19:19:38.039Z,52.14
2023-03-12T19:24:43.339Z,52.17
2023-03-12T19:29:53.263Z,52.33
2023-03-12T19:34:54.914Z,52.43
2023-03-12T19:39:56.555Z,52.20
2023-03-12T19:44:58.262Z,52.22
2023-03-12T19:50:00.764Z,52.18
2023-03-12T19:55:05.074Z,52.12
2023-03-12T20:00:10.270Z,52.35
2023-03-12T20:05:12.607Z,52.54
2023-03-12T20:10:14.699Z,52.61
2023-03-12T20:15:16.341Z,52.97
2023-03-12T20:20:19.151Z,52.41
2023-03-12T20:25:20.768Z,52.33
2023-03-12T20:30:22.429Z,52.72
2023-03-12T20:35:24.109Z,53.04
2023-03-12T20:40:27.640Z,53.17
2023-03-12T20:45:29.533Z,53.60
2023-03-12T20:50:31.393Z,53.37
2023-03-12T20:55:33.027Z,53.17
2023-03-12T21:00:34.677Z,53.25
2023-03-12T21:05:36.277Z,53.71
2023-03-12T21:10:38.477Z,53.88
2023-03-12T21:15:40.119Z,54.22
2023-03-12T21:20:42.535Z,54.72
2023-03-12T21:25:44.330Z,55.24
2023-03-12T21:30:46.103Z,55.46
2023-03-12T21:35:47.994Z,55.62
2023-03-12T21:40:49.644Z,56.09
2023-03-12T21:45:51.851Z,55.94
2023-03-12T21:50:53.461Z,56.41
2023-03-12T21:55:59.815Z,56.43
2023-03-12T22:01:10.862Z,56.56
2023-03-12T22:06:13.747Z,56.91
2023-03-12T22:11:16.293Z,57.29
2023-03-12T22:16:18.046Z,57.69
2023-03-12T22:21:22.059Z,58.19
2023-03-12T22:26:25.232Z,58.30
2023-03-12T22:31:29.197Z,58.19
2023-03-12T22:36:30.909Z,58.18
2023-03-12T22:41:32.637Z,58.59
2023-03-12T22:46:34.631Z,59.02
2023-03-12T22:51:36.371Z,59.36
2023-03-12T22:56:38.000Z,59.63
2023-03-12T23:01:39.662Z,59.65
2023-03-12T23:06:41.335Z,59.50
2023-03-12T23:11:42.987Z,59.73
2023-03-12T23:16:45.088Z,59.89
2023-03-12T23:21:46.760Z,60.29
2023-03-12T23:26:48.563Z,60.51
2023-03-12T23:31:50.262Z,60.99
2023-03-12T23:36:52.009Z,60.94
2023-03-12T23:41:53.746Z,60.74
2023-03-12T23:46:55.386Z,61.19
2023-03-12T23:51:56.995Z,60.71
2023-03-12T23:56:58.886Z,60.64
